createdAt,value
2023-02-02T00:01:33.928Z,2.70
2023-02-02T00:04:02.480Z,2.70
2023-02-02T00:06:33.329Z,2.70
2023-02-02T00:09:02.958Z,2.70
2023-02-02T00:11:30.873Z,2.70
2023-02-02T00:13:58.834Z,2.70
2023-02-02T00:16:48.809Z,2.70
2023-02-02T00:19:18.548Z,2.70
2023-02-02T00:21:48.161Z,2.70
2023-02-02T00:24:18.837Z,2.80
2023-02-02T00:26:49.100Z,2.80
2023-02-02T00:29:18.831Z,2.80
2023-02-02T00:31:48.854Z,2.80
2023-02-02T00:34:17.538Z,2.80
2023-02-02T00:36:50.410Z,2.80
2023-02-02T00:39:20.302Z,2.80
2023-02-02T00:41:48.968Z,2.80
2023-02-02T00:44:34.342Z,2.80
2023-02-02T00:47:02.243Z,2.80
2023-02-02T00:49:30.133Z,2.80
2023-02-02T00:52:00.257Z,2.80
2023-02-02T00:54:28.325Z,2.70
2023-02-02T00:56:56.411Z,2.70
2023-02-02T00:59:24.339Z,2.70
2023-02-02T01:01:52.375Z,2.50
2023-02-02T01:04:20.403Z,2.40
2023-02-02T01:06:48.317Z,2.30
2023-02-02T01:09:17.595Z,2.10
2023-02-02T01:11:45.522Z,2.00
2023-02-02T01:14:13.449Z,1.80
2023-02-02T01:16:41.424Z,1.70
2023-02-02T01:19:09.386Z,1.60
2023-02-02T01:21:37.650Z,1.50
2023-02-02T01:24:05.789Z,1.40
2023-02-02T01:26:35.071Z,1.40
2023-02-02T01:29:03.064Z,1.30
2023-02-02T01:31:30.989Z,1.30
2023-02-02T01:33:58.937Z,1.30
2023-02-02T01:36:26.822Z,1.30
2023-02-02T01:38:54.722Z,1.30
2023-02-02T01:41:24.699Z,1.30
2023-02-02T01:43:57.622Z,1.30
2023-02-02T01:46:28.619Z,1.30
2023-02-02T01:49:10.969Z,1.20
2023-02-02T01:51:50.310Z,1.20
2023-02-02T01:54:21.921Z,1.20
2023-02-02T01:56:55.795Z,1.20
2023-02-02T01:59:26.058Z,1.20
2023-02-02T02:01:54.910Z,1.20
2023-02-02T02:04:25.413Z,1.20
2023-02-02T02:06:54.226Z,1.20
2023-02-02T02:09:22.261Z,1.20
2023-02-02T02:11:50.164Z,1.20
2023-02-02T02:14:35.645Z,1.20
2023-02-02T02:17:18.109Z,1.20
2023-02-02T02:20:32.785Z,1.30
2023-02-02T02:23:45.548Z,1.30
2023-02-02T02:26:42.063Z,1.40
2023-02-02T02:29:39.975Z,1.40
2023-02-02T02:32:23.338Z,1.40
2023-02-02T02:34:56.153Z,1.50
2023-02-02T02:37:34.639Z,1.50
2023-02-02T02:40:09.131Z,1.50
2023-02-02T02:42:40.775Z,1.50
2023-02-02T02:45:12.456Z,1.60
2023-02-02T02:47:43.270Z,1.70
2023-02-02T02:50:12.496Z,1.70
2023-02-02T02:52:41.691Z,1.70
2023-02-02T02:55:11.796Z,1.70
2023-02-02T02:57:58.808Z,1.70
2023-02-02T03:00:48.506Z,1.80
2023-02-02T03:03:30.312Z,1.80
2023-02-02T03:06:04.158Z,1.80
2023-02-02T03:08:35.214Z,1.80
2023-02-02T03:11:05.608Z,1.90
2023-02-02T03:13:34.107Z,1.90
2023-02-02T03:16:02.543Z,2.00
2023-02-02T03:18:33.656Z,2.00
2023-02-02T03:21:01.832Z,2.00
2023-02-02T03:23:29.888Z,2.10
2023-02-02T03:25:57.837Z,2.10
2023-02-02T03:28:27.053Z,2.10
2023-02-02T03:30:56.369Z,2.10
2023-02-02T03:33:24.824Z,2.10
2023-02-02T03:35:54.118Z,2.10
2023-02-02T03:38:22.039Z,2.20
2023-02-02T03:40:49.962Z,2.20
2023-02-02T03:43:22.236Z,2.20
2023-02-02T03:45:56.057Z,2.30
2023-02-02T03:48:23.929Z,2.30
2023-02-02T03:50:53.291Z,2.30
2023-02-02T03:53:21.361Z,2.30
2023-02-02T03:55:49.329Z,2.40
2023-02-02T03:58:17.532Z,2.40
2023-02-02T04:00:45.424Z,2.40
2023-02-02T04:03:13.317Z,2.40
2023-02-02T04:05:41.181Z,2.40
2023-02-02T04:08:10.436Z,2.40
2023-02-02T04:10:39.664Z,2.50
2023-02-02T04:13:07.584Z,2.50
2023-02-02T04:15:35.463Z,2.50
2023-02-02T04:18:03.381Z,2.50
2023-02-02T04:20:31.315Z,2.50
2023-02-02T04:22:59.346Z,2.50
2023-02-02T04:25:28.608Z,2.50
2023-02-02T04:27:56.611Z,2.50
2023-02-02T04:30:24.523Z,2.50
2023-02-02T04:32:52.489Z,2.50
2023-02-02T04:35:20.596Z,2.60
2023-02-02T04:37:48.461Z,2.60
2023-02-02T04:40:16.533Z,2.60
2023-02-02T04:42:45.800Z,2.60
2023-02-02T04:45:13.796Z,2.60
2023-02-02T04:47:41.771Z,2.60
2023-02-02T04:50:10.817Z,2.60
2023-02-02T04:52:38.716Z,2.60
2023-02-02T04:55:07.132Z,2.60
2023-02-02T04:57:35.125Z,2.70
2023-02-02T05:00:04.971Z,2.60
2023-02-02T05:02:32.887Z,2.70
2023-02-02T05:05:00.876Z,2.70
2023-02-02T05:07:28.949Z,2.70
2023-02-02T05:09:56.865Z,2.60
2023-02-02T05:12:24.907Z,2.70
2023-02-02T05:14:53.055Z,2.70
2023-02-02T05:17:22.303Z,2.70
2023-02-02T05:19:50.379Z,2.70
2023-02-02T05:22:18.263Z,2.70
2023-02-02T05:24:46.634Z,2.70
2023-02-02T05:27:14.561Z,2.70
2023-02-02T05:29:42.497Z,2.70
2023-02-02T05:32:10.439Z,2.70
2023-02-02T05:34:39.707Z,2.80
2023-02-02T05:37:07.596Z,2.70
2023-02-02T05:39:35.464Z,2.70
2023-02-02T05:42:03.519Z,2.70
2023-02-02T05:44:31.569Z,2.70
2023-02-02T05:46:59.509Z,2.70
2023-02-02T05:49:27.560Z,2.70
2023-02-02T05:51:59.043Z,2.70
2023-02-02T05:54:27.004Z,2.70
2023-02-02T05:56:56.033Z,2.70
2023-02-02T05:59:25.159Z,2.70
2023-02-02T06:01:53.087Z,2.70
2023-02-02T06:04:20.995Z,2.70
2023-02-02T06:06:48.939Z,2.80
2023-02-02T06:09:18.195Z,2.80
2023-02-02T06:11:46.382Z,2.80
2023-02-02T06:14:14.410Z,2.80
2023-02-02T06:16:42.304Z,2.80
2023-02-02T06:19:10.248Z,2.80
2023-02-02T06:21:38.172Z,2.80
2023-02-02T06:24:06.772Z,2.80
2023-02-02T06:26:37.386Z,2.80
2023-02-02T06:29:05.611Z,2.80
2023-02-02T06:31:34.483Z,2.80
2023-02-02T06:34:02.569Z,2.80
2023-02-02T06:36:30.711Z,2.80
2023-02-02T06:38:58.944Z,2.90
2023-02-02T06:41:27.143Z,2.90
2023-02-02T06:43:56.436Z,2.90
2023-02-02T06:46:24.492Z,2.90
2023-02-02T06:48:52.464Z,2.90
2023-02-02T06:51:20.667Z,2.90
2023-02-02T06:53:49.307Z,2.90
2023-02-02T06:56:17.589Z,2.90
2023-02-02T06:58:45.744Z,2.90
2023-02-02T07:01:15.939Z,2.90
2023-02-02T07:03:43.950Z,2.80
2023-02-02T07:06:13.659Z,2.90
2023-02-02T07:08:41.704Z,2.90
2023-02-02T07:11:13.158Z,2.90
2023-02-02T07:13:44.534Z,2.80
2023-02-02T07:16:14.318Z,2.90
2023-02-02T07:18:43.445Z,2.90
2023-02-02T07:21:17.917Z,2.90
2023-02-02T07:23:46.142Z,2.90
2023-02-02T07:26:15.092Z,2.90
2023-02-02T07:28:43.171Z,2.90
2023-02-02T07:31:17.200Z,3.00
2023-02-02T07:33:46.364Z,3.00
2023-02-02T07:36:16.408Z,3.00
2023-02-02T07:38:44.951Z,3.00
2023-02-02T07:41:13.135Z,3.00
2023-02-02T07:43:41.492Z,3.00
2023-02-02T07:46:12.835Z,3.00
2023-02-02T07:48:42.369Z,3.00
2023-02-02T07:51:12.781Z,3.10
2023-02-02T07:53:43.918Z,3.10
2023-02-02T07:56:14.145Z,3.10
2023-02-02T07:58:43.278Z,3.10
2023-02-02T08:01:13.708Z,3.10
2023-02-02T08:03:43.934Z,3.10
2023-02-02T08:06:15.566Z,3.10
2023-02-02T08:08:43.645Z,3.10
2023-02-02T08:11:13.173Z,3.20
2023-02-02T08:13:41.708Z,3.20
2023-02-02T08:16:10.829Z,3.20
2023-02-02T08:18:39.567Z,3.20
2023-02-02T08:21:09.806Z,3.20
2023-02-02T08:23:38.220Z,3.20
2023-02-02T08:26:11.910Z,3.10
2023-02-02T08:28:40.636Z,3.10
2023-02-02T08:31:10.797Z,3.10
2023-02-02T08:33:40.026Z,3.20
2023-02-02T08:36:13.668Z,3.20
2023-02-02T08:38:42.051Z,3.10
2023-02-02T08:41:12.562Z,3.20
2023-02-02T08:43:40.972Z,3.20
2023-02-02T08:46:10.963Z,3.20
2023-02-02T08:48:39.491Z,3.20
2023-02-02T08:51:14.430Z,3.20
2023-02-02T08:53:42.519Z,3.30
2023-02-02T08:56:12.599Z,3.30
2023-02-02T08:58:40.824Z,3.40
2023-02-02T09:01:10.545Z,3.40
2023-02-02T09:03:40.219Z,3.50
2023-02-02T09:06:09.832Z,3.50
2023-02-02T09:08:39.392Z,3.50
2023-02-02T09:11:10.116Z,3.50
2023-02-02T09:13:39.458Z,3.50
2023-02-02T09:16:10.776Z,3.50
2023-02-02T09:18:38.876Z,3.60
2023-02-02T09:21:09.051Z,3.60
2023-02-02T09:23:40.104Z,3.60
2023-02-02T09:26:12.316Z,3.70
2023-02-02T09:28:41.028Z,3.70
2023-02-02T09:31:09.884Z,3.70
2023-02-02T09:33:38.481Z,3.70
2023-02-02T09:36:08.488Z,3.60
2023-02-02T09:38:37.082Z,3.60
2023-02-02T09:41:35.853Z,3.50
2023-02-02T09:44:09.858Z,3.50
2023-02-02T09:46:50.200Z,3.50
2023-02-02T09:49:23.669Z,3.60
2023-02-02T09:51:57.931Z,3.70
2023-02-02T09:54:32.355Z,3.70
2023-02-02T09:57:09.884Z,3.70
2023-02-02T09:59:42.764Z,3.80
2023-02-02T10:02:18.633Z,3.90
2023-02-02T10:04:50.027Z,3.90
2023-02-02T10:07:20.568Z,3.90
2023-02-02T10:09:54.268Z,3.80
2023-02-02T10:12:32.730Z,3.80
2023-02-02T10:15:06.491Z,3.80
2023-02-02T10:17:41.769Z,3.80
2023-02-02T10:20:23.854Z,3.90
2023-02-02T10:22:52.347Z,3.90
2023-02-02T10:25:23.662Z,3.90
2023-02-02T10:28:01.416Z,3.90
2023-02-02T10:30:40.334Z,3.90
2023-02-02T10:33:16.582Z,3.90
2023-02-02T10:35:50.993Z,3.80
2023-02-02T10:38:29.652Z,3.70
2023-02-02T10:41:04.062Z,3.70
2023-02-02T10:44:05.225Z,3.60
2023-02-02T10:46:37.854Z,3.60
2023-02-02T10:49:19.139Z,3.70
2023-02-02T10:51:55.358Z,3.70
2023-02-02T10:54:55.877Z,3.70
2023-02-02T10:57:43.677Z,3.60
2023-02-02T11:00:22.984Z,3.60
2023-02-02T11:02:52.724Z,3.50
2023-02-02T11:05:41.318Z,3.40
2023-02-02T11:08:20.886Z,3.50
2023-02-02T11:10:52.999Z,3.50
2023-02-02T11:13:29.726Z,3.50
2023-02-02T11:16:22.564Z,3.40
2023-02-02T11:18:51.002Z,3.50
2023-02-02T11:21:24.571Z,3.50
2023-02-02T11:23:58.119Z,3.50
2023-02-02T11:26:27.369Z,3.50
2023-02-02T11:28:58.337Z,3.70
2023-02-02T11:31:36.858Z,3.90
2023-02-02T11:34:15.337Z,4.00
2023-02-02T11:37:00.045Z,4.10
2023-02-02T11:39:28.485Z,4.40
2023-02-02T11:42:05.003Z,4.50
2023-02-02T11:44:35.615Z,4.60
2023-02-02T11:47:06.323Z,4.60
2023-02-02T11:49:39.975Z,4.70
2023-02-02T11:52:17.724Z,4.80
2023-02-02T11:54:49.181Z,4.80
2023-02-02T11:57:19.725Z,4.80
2023-02-02T11:59:48.851Z,4.70
2023-02-02T12:02:30.428Z,4.60
2023-02-02T12:05:15.027Z,4.50
2023-02-02T12:07:44.513Z,4.40
2023-02-02T12:10:20.386Z,4.40
2023-02-02T12:12:58.255Z,4.30
2023-02-02T12:15:33.896Z,4.20
2023-02-02T12:18:20.752Z,4.20
2023-02-02T12:20:54.699Z,4.20
2023-02-02T12:23:53.309Z,4.20
2023-02-02T12:26:26.811Z,4.10
2023-02-02T12:29:22.154Z,4.10
2023-02-02T12:32:05.819Z,4.00
2023-02-02T12:34:45.643Z,4.00
2023-02-02T12:37:27.003Z,3.90
2023-02-02T12:40:11.144Z,3.80
2023-02-02T12:42:51.164Z,3.80
2023-02-02T12:45:36.107Z,3.70
2023-02-02T12:48:14.684Z,3.60
2023-02-02T12:51:05.056Z,3.50
2023-02-02T12:53:41.153Z,3.50
2023-02-02T12:56:21.372Z,3.50
2023-02-02T12:58:59.557Z,3.50
2023-02-02T13:01:46.032Z,3.50
2023-02-02T13:04:30.263Z,3.50
2023-02-02T13:07:28.120Z,3.60
2023-02-02T13:10:05.517Z,3.60
2023-02-02T13:12:36.701Z,3.70
2023-02-02T13:15:08.853Z,3.70
2023-02-02T13:17:42.648Z,3.70
2023-02-02T13:20:21.416Z,3.70
2023-02-02T13:22:56.248Z,3.70
2023-02-02T13:25:29.649Z,3.60
2023-02-02T13:27:59.765Z,3.70
2023-02-02T13:30:34.232Z,3.80
2023-02-02T13:33:06.347Z,3.80
2023-02-02T13:35:39.357Z,3.80
2023-02-02T13:38:19.344Z,3.80
2023-02-02T13:40:48.372Z,3.80
2023-02-02T13:43:39.843Z,3.80
2023-02-02T13:46:17.511Z,3.80
2023-02-02T13:48:55.894Z,3.90
2023-02-02T13:51:45.406Z,3.90
2023-02-02T13:54:45.760Z,4.00
2023-02-02T13:57:29.092Z,4.10
2023-02-02T14:00:04.460Z,4.20
2023-02-02T14:02:40.926Z,4.30
2023-02-02T14:05:21.267Z,4.40
2023-02-02T14:07:50.203Z,4.40
2023-02-02T14:10:27.679Z,4.40
2023-02-02T14:12:56.805Z,4.40
2023-02-02T14:15:39.425Z,4.40
2023-02-02T14:18:08.185Z,4.30
2023-02-02T14:20:48.145Z,4.20
2023-02-02T14:23:53.453Z,4.10
2023-02-02T14:26:42.679Z,4.10
2023-02-02T14:29:37.058Z,4.10
2023-02-02T14:32:34.386Z,4.20
2023-02-02T14:35:40.727Z,4.20
2023-02-02T14:38:13.568Z,4.20
2023-02-02T14:40:51.687Z,4.20
2023-02-02T14:43:49.628Z,4.20
2023-02-02T14:46:32.965Z,4.10
2023-02-02T14:49:20.527Z,4.00
2023-02-02T14:51:53.091Z,3.90
2023-02-02T14:54:26.414Z,3.80
2023-02-02T14:56:58.893Z,3.70
2023-02-02T14:59:32.689Z,3.70
2023-02-02T15:02:19.501Z,3.60
2023-02-02T15:04:48.300Z,3.60
2023-02-02T15:07:38.973Z,3.60
2023-02-02T15:10:10.127Z,3.60
2023-02-02T15:12:41.636Z,3.60
2023-02-02T15:15:22.473Z,3.50
2023-02-02T15:18:01.385Z,3.20
2023-02-02T15:20:33.097Z,3.00
2023-02-02T15:23:04.721Z,2.70
2023-02-02T15:25:36.907Z,2.60
2023-02-02T15:28:14.993Z,2.50
2023-02-02T15:30:49.032Z,2.50
2023-02-02T15:33:25.604Z,2.40
2023-02-02T15:35:54.732Z,2.50
2023-02-02T15:38:25.462Z,2.40
2023-02-02T15:40:54.852Z,2.40
2023-02-02T15:43:27.915Z,2.40
2023-02-02T15:46:03.560Z,2.30
2023-02-02T15:48:34.774Z,2.20
2023-02-02T15:51:06.731Z,2.20
2023-02-02T15:53:48.176Z,2.10
2023-02-02T15:56:29.294Z,2.00
2023-02-02T15:58:59.413Z,2.00
2023-02-02T16:01:34.202Z,1.90
2023-02-02T16:04:14.929Z,2.00
2023-02-02T16:06:44.225Z,2.00
2023-02-02T16:09:23.473Z,2.00
2023-02-02T16:11:52.182Z,2.00
2023-02-02T16:14:20.784Z,2.10
2023-02-02T16:16:50.496Z,2.10
2023-02-02T16:19:21.802Z,2.10
2023-02-02T16:21:54.478Z,2.10
2023-02-02T16:24:25.274Z,2.20
2023-02-02T16:26:55.260Z,2.20
2023-02-02T16:29:23.764Z,2.20
2023-02-02T16:31:53.323Z,2.30
2023-02-02T16:34:46.686Z,2.20
2023-02-02T16:37:16.866Z,2.20
2023-02-02T16:39:45.855Z,2.20
2023-02-02T16:42:25.540Z,2.20
2023-02-02T16:44:54.345Z,2.20
2023-02-02T16:47:40.569Z,2.20
2023-02-02T16:50:31.542Z,2.20
2023-02-02T16:53:02.930Z,2.20
2023-02-02T16:55:48.865Z,2.30
2023-02-02T16:58:21.609Z,2.30
2023-02-02T17:01:12.253Z,2.30
2023-02-02T17:03:51.982Z,2.40
2023-02-02T17:06:33.178Z,2.30
2023-02-02T17:09:17.896Z,2.30
2023-02-02T17:12:01.857Z,2.30
2023-02-02T17:14:33.689Z,2.30
2023-02-02T17:17:06.964Z,2.30
2023-02-02T17:19:36.241Z,2.20
2023-02-02T17:22:06.318Z,2.10
2023-02-02T17:24:34.700Z,2.10
2023-02-02T17:27:03.357Z,2.20
2023-02-02T17:29:31.508Z,2.10
2023-02-02T17:31:59.642Z,2.20
2023-02-02T17:34:28.797Z,2.20
2023-02-02T17:36:58.192Z,2.20
2023-02-02T17:39:26.092Z,2.20
2023-02-02T17:41:54.043Z,2.20
2023-02-02T17:44:22.070Z,2.30
2023-02-02T17:46:50.169Z,2.20
2023-02-02T17:49:18.077Z,2.20
2023-02-02T17:51:46.146Z,2.30
2023-02-02T17:54:16.697Z,2.40
2023-02-02T17:56:45.123Z,2.30
2023-02-02T17:59:13.408Z,2.30
2023-02-02T18:01:42.879Z,2.30
2023-02-02T18:04:13.652Z,2.30
2023-02-02T18:06:41.896Z,2.30
2023-02-02T18:09:10.649Z,2.30
2023-02-02T18:11:42.443Z,2.30
2023-02-02T18:14:11.023Z,2.30
2023-02-02T18:16:38.919Z,2.30
2023-02-02T18:19:06.953Z,2.40
2023-02-02T18:21:34.942Z,2.30
2023-02-02T18:24:02.859Z,2.30
2023-02-02T18:26:31.718Z,2.30
2023-02-02T18:29:01.160Z,2.30
2023-02-02T18:31:29.339Z,2.30
2023-02-02T18:33:57.568Z,2.30
2023-02-02T18:36:26.124Z,2.30
2023-02-02T18:38:54.761Z,2.20
2023-02-02T18:41:23.596Z,2.20
2023-02-02T18:43:55.029Z,2.20
2023-02-02T18:46:24.452Z,2.30
2023-02-02T18:48:52.399Z,2.30
2023-02-02T18:51:22.111Z,2.30
2023-02-02T18:53:50.197Z,2.20
2023-02-02T18:56:18.600Z,2.20
2023-02-02T18:58:46.555Z,2.10
2023-02-02T19:01:16.576Z,2.10
2023-02-02T19:03:49.963Z,2.00
2023-02-02T19:06:36.866Z,2.00
2023-02-02T19:09:05.119Z,2.00
2023-02-02T19:11:39.059Z,1.90
2023-02-02T19:14:16.732Z,1.90
2023-02-02T19:16:46.481Z,2.00
2023-02-02T19:19:22.887Z,2.00
2023-02-02T19:21:54.333Z,2.00
2023-02-02T19:24:22.687Z,1.90
2023-02-02T19:26:51.470Z,1.90
2023-02-02T19:29:21.962Z,1.90
2023-02-02T19:31:53.964Z,1.90
2023-02-02T19:34:24.138Z,1.90
2023-02-02T19:36:52.497Z,1.90
2023-02-02T19:39:27.216Z,1.90
2023-02-02T19:41:59.740Z,1.90
2023-02-02T19:44:32.250Z,1.80
2023-02-02T19:47:02.854Z,1.70
2023-02-02T19:49:35.536Z,1.70
2023-02-02T19:52:05.330Z,1.60
2023-02-02T19:54:35.749Z,1.50
2023-02-02T19:57:16.037Z,1.40
2023-02-02T19:59:48.754Z,1.40
2023-02-02T20:02:42.535Z,1.30
2023-02-02T20:05:20.284Z,1.20
2023-02-02T20:07:49.365Z,1.30
2023-02-02T20:10:21.538Z,1.30
2023-02-02T20:12:50.076Z,1.40
2023-02-02T20:15:28.566Z,1.50
2023-02-02T20:17:59.080Z,1.50
2023-02-02T20:20:30.808Z,1.50
2023-02-02T20:22:59.118Z,1.60
2023-02-02T20:25:29.183Z,1.60
2023-02-02T20:27:59.053Z,1.60
2023-02-02T20:30:30.841Z,1.60
2023-02-02T20:33:01.692Z,1.50
2023-02-02T20:35:42.670Z,1.50
2023-02-02T20:38:23.524Z,1.30
2023-02-02T20:40:52.237Z,1.20
2023-02-02T20:43:20.305Z,1.10
2023-02-02T20:45:49.103Z,1.00
2023-02-02T20:48:17.170Z,0.90
2023-02-02T20:50:47.729Z,0.90
2023-02-02T20:53:23.006Z,0.80
2023-02-02T20:55:56.871Z,0.80
2023-02-02T20:58:25.264Z,0.70
2023-02-02T21:00:53.458Z,0.70
2023-02-02T21:03:21.884Z,0.70
2023-02-02T21:05:51.269Z,0.60
2023-02-02T21:08:19.325Z,0.60
2023-02-02T21:10:47.390Z,0.60
2023-02-02T21:13:15.569Z,0.60
2023-02-02T21:15:43.546Z,0.50
2023-02-02T21:18:11.486Z,0.50
2023-02-02T21:20:39.424Z,0.50
2023-02-02T21:23:10.275Z,0.50
2023-02-02T21:25:38.403Z,0.50
2023-02-02T21:28:06.436Z,0.60
2023-02-02T21:30:34.538Z,0.60
2023-02-02T21:33:02.780Z,0.60
2023-02-02T21:35:30.731Z,0.60
2023-02-02T21:38:01.679Z,0.60
2023-02-02T21:40:34.445Z,0.50
2023-02-02T21:43:12.376Z,0.50
2023-02-02T21:45:40.474Z,0.40
2023-02-02T21:48:24.101Z,0.30
2023-02-02T21:50:52.229Z,0.30
2023-02-02T21:53:22.414Z,0.30
2023-02-02T21:55:54.282Z,0.30
2023-02-02T21:58:25.892Z,0.20
2023-02-02T22:00:54.849Z,0.20
2023-02-02T22:03:35.969Z,0.20
2023-02-02T22:06:28.077Z,0.20
2023-02-02T22:09:02.111Z,0.10
2023-02-02T22:11:39.897Z,0.20
2023-02-02T22:14:19.459Z,0.20
2023-02-02T22:16:50.281Z,0.20
2023-02-02T22:19:38.968Z,0.20
2023-02-02T22:22:19.045Z,0.20
2023-02-02T22:24:53.252Z,0.10
2023-02-02T22:27:25.174Z,0.20
2023-02-02T22:29:58.188Z,0.20
2023-02-02T22:32:26.463Z,0.20
2023-02-02T22:34:54.353Z,0.20
2023-02-02T22:37:22.363Z,0.20
2023-02-02T22:39:50.251Z,0.30
2023-02-02T22:42:18.484Z,0.20
2023-02-02T22:44:48.295Z,0.20
2023-02-02T22:47:16.254Z,0.30
2023-02-02T22:49:44.160Z,0.30
2023-02-02T22:52:12.116Z,0.40
2023-02-02T22:54:40.045Z,0.50
2023-02-02T22:57:07.949Z,0.50
2023-02-02T22:59:35.804Z,0.50
2023-02-02T23:02:05.119Z,0.50
2023-02-02T23:04:33.046Z,0.60
2023-02-02T23:07:01.000Z,0.70
2023-02-02T23:09:28.903Z,0.70
2023-02-02T23:11:56.831Z,0.80
2023-02-02T23:14:24.779Z,0.80
2023-02-02T23:16:52.680Z,0.90
2023-02-02T23:19:21.991Z,0.90
2023-02-02T23:21:49.925Z,0.90
2023-02-02T23:24:17.817Z,0.90
2023-02-02T23:26:45.720Z,0.90
2023-02-02T23:29:13.602Z,0.80
2023-02-02T23:31:41.600Z,0.90
2023-02-02T23:34:09.608Z,0.90
2023-02-02T23:36:38.934Z,0.90
2023-02-02T23:39:06.922Z,0.80
2023-02-02T23:41:34.844Z,0.80
2023-02-02T23:44:02.743Z,0.80
2023-02-02T23:46:31.514Z,0.80
2023-02-02T23:49:00.687Z,0.80
2023-02-02T23:51:28.673Z,0.90
2023-02-02T23:53:58.234Z,0.80
2023-02-02T23:56:26.255Z,0.70
2023-02-02T23:58:54.298Z,0.70
